sensor_id;sensor_type;location;lat;lon;timestamp;pressure;altitude;pressure_sealevel;temperature;humidity
40948;BME280;49382;-25.924;28.194;2023-03-03T00:02:08;85152.54;;;17.96;46.35
40948;BME280;49382;-25.924;28.194;2023-03-03T00:04:34;85152.60;;;18.94;44.28
40948;BME280;49382;-25.924;28.194;2023-03-03T00:06:59;85149.71;;;18.14;46.46
40948;BME280;49382;-25.924;28.194;2023-03-03T00:09:25;85150.39;;;19.74;43.02
40948;BME280;49382;-25.924;28.194;2023-03-03T00:11:55;85154.56;;;21.12;40.76
40948;BME280;49382;-25.924;28.194;2023-03-03T00:14:23;85147.40;;;19.49;43.80
40948;BME280;49382;-25.924;28.194;2023-03-03T00:16:43;85149.71;;;20.19;42.67
40948;BME280;49382;-25.924;28.194;2023-03-03T00:19:14;85144.72;;;18.78;44.81
40948;BME280;49382;-25.924;28.194;2023-03-03T00:21:41;85142.75;;;22.00;40.49
40948;BME280;49382;-25.924;28.194;2023-03-03T00:26:30;85135.89;;;19.36;43.69
40948;BME280;49382;-25.924;28.194;2023-03-03T00:28:53;85133.42;;;17.98;46.10
40948;BME280;49382;-25.924;28.194;2023-03-03T00:31:19;85129.74;;;18.61;45.55
40948;BME280;49382;-25.924;28.194;2023-03-03T00:33:46;85128.71;;;20.16;43.16
40948;BME280;49382;-25.924;28.194;2023-03-03T00:36:23;85126.79;;;17.93;46.89
40948;BME280;49382;-25.924;28.194;2023-03-03T00:38:35;85127.80;;;18.79;45.11
40948;BME280;49382;-25.924;28.194;2023-03-03T00:41:00;85130.23;;;18.90;45.15
40948;BME280;49382;-25.924;28.194;2023-03-03T00:43:33;85133.97;;;21.22;41.04
40948;BME280;49382;-25.924;28.194;2023-03-03T00:45:53;85133.34;;;20.67;41.22
40948;BME280;49382;-25.924;28.194;2023-03-03T00:48:23;85129.44;;;18.04;46.74
40948;BME280;49382;-25.924;28.194;2023-03-03T00:50:43;85131.63;;;18.06;47.25
40948;BME280;49382;-25.924;28.194;2023-03-03T00:53:13;85130.72;;;20.09;42.88
40948;BME280;49382;-25.924;28.194;2023-03-03T00:55:35;85130.68;;;19.11;44.21
40948;BME280;49382;-25.924;28.194;2023-03-03T00:58:01;85131.86;;;19.35;44.00
40948;BME280;49382;-25.924;28.194;2023-03-03T01:00:27;85125.64;;;18.27;46.04
40948;BME280;49382;-25.924;28.194;2023-03-03T01:02:52;85124.35;;;19.35;44.29
40948;BME280;49382;-25.924;28.194;2023-03-03T01:05:20;85128.87;;;19.45;44.41
40948;BME280;49382;-25.924;28.194;2023-03-03T01:07:44;85133.43;;;20.03;43.00
40948;BME280;49382;-25.924;28.194;2023-03-03T01:10:10;85131.31;;;18.27;46.22
40948;BME280;49382;-25.924;28.194;2023-03-03T01:12:36;85135.03;;;20.57;42.37
40948;BME280;49382;-25.924;28.194;2023-03-03T01:15:01;85132.93;;;17.94;47.43
40948;BME280;49382;-25.924;28.194;2023-03-03T01:17:27;85135.77;;;17.85;47.86
40948;BME280;49382;-25.924;28.194;2023-03-03T01:19:53;85137.44;;;19.15;44.58
40948;BME280;49382;-25.924;28.194;2023-03-03T01:22:18;85135.98;;;17.30;48.42
40948;BME280;49382;-25.924;28.194;2023-03-03T01:24:44;85132.17;;;17.09;49.95
40948;BME280;49382;-25.924;28.194;2023-03-03T01:27:10;85132.53;;;16.97;50.78
40948;BME280;49382;-25.924;28.194;2023-03-03T01:29:37;85130.89;;;18.49;47.02
40948;BME280;49382;-25.924;28.194;2023-03-03T01:32:01;85133.13;;;19.57;45.73
40948;BME280;49382;-25.924;28.194;2023-03-03T01:34:27;85134.44;;;18.81;46.38
40948;BME280;49382;-25.924;28.194;2023-03-03T01:36:55;85133.50;;;19.96;44.17
40948;BME280;49382;-25.924;28.194;2023-03-03T01:39:19;85128.42;;;17.52;48.72
40948;BME280;49382;-25.924;28.194;2023-03-03T01:41:45;85123.91;;;18.87;45.81
40948;BME280;49382;-25.924;28.194;2023-03-03T01:44:14;85124.89;;;17.85;48.59
40948;BME280;49382;-25.924;28.194;2023-03-03T01:46:47;85121.89;;;19.02;46.05
40948;BME280;49382;-25.924;28.194;2023-03-03T01:49:10;85119.30;;;19.08;45.75
40948;BME280;49382;-25.924;28.194;2023-03-03T01:51:30;85120.36;;;20.14;44.54
40948;BME280;49382;-25.924;28.194;2023-03-03T01:53:56;85117.24;;;19.57;45.28
40948;BME280;49382;-25.924;28.194;2023-03-03T01:56:20;85121.57;;;20.08;44.18
40948;BME280;49382;-25.924;28.194;2023-03-03T01:58:48;85120.55;;;19.49;44.04
40948;BME280;49382;-25.924;28.194;2023-03-03T02:01:13;85121.68;;;20.52;43.31
40948;BME280;49382;-25.924;28.194;2023-03-03T02:03:37;85117.61;;;19.91;43.62
40948;BME280;49382;-25.924;28.194;2023-03-03T02:06:07;85117.40;;;20.12;43.17
40948;BME280;49382;-25.924;28.194;2023-03-03T02:08:33;85117.33;;;19.19;44.77
40948;BME280;49382;-25.924;28.194;2023-03-03T02:10:54;85114.69;;;17.48;49.11
40948;BME280;49382;-25.924;28.194;2023-03-03T02:13:20;85114.69;;;17.40;49.51
40948;BME280;49382;-25.924;28.194;2023-03-03T02:15:46;85113.27;;;20.11;43.69
40948;BME280;49382;-25.924;28.194;2023-03-03T02:18:13;85110.16;;;19.54;44.10
40948;BME280;49382;-25.924;28.194;2023-03-03T02:20:47;85111.91;;;20.29;42.94
40948;BME280;49382;-25.924;28.194;2023-03-03T02:23:07;85108.47;;;18.24;47.14
40948;BME280;49382;-25.924;28.194;2023-03-03T02:25:36;85110.34;;;20.27;43.51
40948;BME280;49382;-25.924;28.194;2023-03-03T02:27:55;85112.78;;;21.08;41.80
40948;BME280;49382;-25.924;28.194;2023-03-03T02:30:22;85114.39;;;20.33;42.69
40948;BME280;49382;-25.924;28.194;2023-03-03T02:32:46;85111.47;;;20.25;42.94
40948;BME280;49382;-25.924;28.194;2023-03-03T02:37:38;85103.79;;;19.77;43.81
40948;BME280;49382;-25.924;28.194;2023-03-03T02:40:04;85105.32;;;20.16;43.20
40948;BME280;49382;-25.924;28.194;2023-03-03T02:42:30;85108.45;;;20.68;42.36
40948;BME280;49382;-25.924;28.194;2023-03-03T02:44:55;85110.92;;;20.56;42.33
40948;BME280;49382;-25.924;28.194;2023-03-03T02:47:21;85110.12;;;20.01;43.48
40948;BME280;49382;-25.924;28.194;2023-03-03T02:49:46;85111.00;;;18.77;46.30
40948;BME280;49382;-25.924;28.194;2023-03-03T02:52:12;85113.69;;;20.61;43.45
40948;BME280;49382;-25.924;28.194;2023-03-03T02:54:38;85107.90;;;18.83;46.40
40948;BME280;49382;-25.924;28.194;2023-03-03T02:57:05;85113.88;;;20.91;42.59
40948;BME280;49382;-25.924;28.194;2023-03-03T02:59:30;85110.84;;;21.06;42.22
40948;BME280;49382;-25.924;28.194;2023-03-03T03:01:56;85106.32;;;19.05;45.69
40948;BME280;49382;-25.924;28.194;2023-03-03T03:04:23;85107.01;;;18.97;45.89
40948;BME280;49382;-25.924;28.194;2023-03-03T03:06:47;85108.64;;;18.03;48.47
40948;BME280;49382;-25.924;28.194;2023-03-03T03:09:14;85113.10;;;19.98;44.49
40948;BME280;49382;-25.924;28.194;2023-03-03T03:11:39;85109.19;;;18.07;47.91
40948;BME280;49382;-25.924;28.194;2023-03-03T03:14:06;85113.32;;;19.62;44.54
40948;BME280;49382;-25.924;28.194;2023-03-03T03:16:30;85111.40;;;20.74;42.87
40948;BME280;49382;-25.924;28.194;2023-03-03T03:18:56;85108.87;;;18.46;47.59
40948;BME280;49382;-25.924;28.194;2023-03-03T03:21:22;85109.53;;;17.14;51.40
40948;BME280;49382;-25.924;28.194;2023-03-03T03:23:47;85110.12;;;16.29;53.08
40948;BME280;49382;-25.924;28.194;2023-03-03T03:26:14;85111.18;;;17.00;51.53
40948;BME280;49382;-25.924;28.194;2023-03-03T03:28:39;85115.34;;;18.13;49.07
40948;BME280;49382;-25.924;28.194;2023-03-03T03:31:07;85117.15;;;19.51;45.82
40948;BME280;49382;-25.924;28.194;2023-03-03T03:33:31;85120.89;;;19.92;44.52
40948;BME280;49382;-25.924;28.194;2023-03-03T03:35:57;85120.97;;;18.39;47.47
40948;BME280;49382;-25.924;28.194;2023-03-03T03:38:22;85119.61;;;19.49;45.64
40948;BME280;49382;-25.924;28.194;2023-03-03T03:40:48;85119.03;;;19.98;44.46
40948;BME280;49382;-25.924;28.194;2023-03-03T03:43:14;85124.50;;;20.14;44.52
40948;BME280;49382;-25.924;28.194;2023-03-03T03:45:42;85127.31;;;20.29;43.95
40948;BME280;49382;-25.924;28.194;2023-03-03T03:48:06;85126.22;;;20.52;43.66
40948;BME280;49382;-25.924;28.194;2023-03-03T03:50:31;85129.73;;;20.60;43.64
40948;BME280;49382;-25.924;28.194;2023-03-03T03:52:57;85131.19;;;19.95;44.50
40948;BME280;49382;-25.924;28.194;2023-03-03T03:55:23;85128.23;;;20.16;44.17
40948;BME280;49382;-25.924;28.194;2023-03-03T03:57:49;85125.76;;;18.03;48.26
40948;BME280;49382;-25.924;28.194;2023-03-03T04:00:15;85128.17;;;17.84;49.45
40948;BME280;49382;-25.924;28.194;2023-03-03T04:02:40;85127.03;;;17.38;50.47
40948;BME280;49382;-25.924;28.194;2023-03-03T04:05:07;85129.19;;;18.13;49.78
40948;BME280;49382;-25.924;28.194;2023-03-03T04:07:32;85128.56;;;18.94;47.16
40948;BME280;49382;-25.924;28.194;2023-03-03T04:09:58;85133.62;;;18.70;47.09
40948;BME280;49382;-25.924;28.194;2023-03-03T04:12:23;85136.52;;;20.83;43.89
40948;BME280;49382;-25.924;28.194;2023-03-03T04:14:49;85138.63;;;19.05;47.62
40948;BME280;49382;-25.924;28.194;2023-03-03T04:17:16;85144.16;;;19.69;45.56
40948;BME280;49382;-25.924;28.194;2023-03-03T04:19:40;85149.72;;;19.86;45.23
40948;BME280;49382;-25.924;28.194;2023-03-03T04:22:06;85155.06;;;20.84;43.54
40948;BME280;49382;-25.924;28.194;2023-03-03T04:24:32;85147.22;;;19.33;45.83
40948;BME280;49382;-25.924;28.194;2023-03-03T04:26:57;85147.61;;;20.18;44.55
40948;BME280;49382;-25.924;28.194;2023-03-03T04:29:23;85148.69;;;20.32;44.34
40948;BME280;49382;-25.924;28.194;2023-03-03T04:31:49;85157.22;;;18.91;47.22
40948;BME280;49382;-25.924;28.194;2023-03-03T04:34:14;85156.61;;;19.70;45.74
40948;BME280;49382;-25.924;28.194;2023-03-03T04:36:40;85162.36;;;20.28;45.04
40948;BME280;49382;-25.924;28.194;2023-03-03T04:39:06;85164.98;;;20.17;44.77
40948;BME280;49382;-25.924;28.194;2023-03-03T04:41:32;85164.64;;;20.40;44.11
40948;BME280;49382;-25.924;28.194;2023-03-03T04:43:58;85167.66;;;20.17;45.12
40948;BME280;49382;-25.924;28.194;2023-03-03T04:46:23;85168.87;;;20.79;43.59
40948;BME280;49382;-25.924;28.194;2023-03-03T04:48:49;85167.18;;;20.39;44.54
40948;BME280;49382;-25.924;28.194;2023-03-03T04:51:15;85160.14;;;20.87;43.62
40948;BME280;49382;-25.924;28.194;2023-03-03T04:53:41;85165.28;;;20.84;42.83
40948;BME280;49382;-25.924;28.194;2023-03-03T04:56:07;85171.05;;;22.24;41.00
40948;BME280;49382;-25.924;28.194;2023-03-03T04:58:32;85177.65;;;20.27;44.70
40948;BME280;49382;-25.924;28.194;2023-03-03T05:00:58;85177.21;;;20.14;44.89
40948;BME280;49382;-25.924;28.194;2023-03-03T05:03:24;85173.52;;;18.50;48.21
40948;BME280;49382;-25.924;28.194;2023-03-03T05:05:49;85175.57;;;20.47;44.92
40948;BME280;49382;-25.924;28.194;2023-03-03T05:08:15;85180.49;;;21.17;42.66
40948;BME280;49382;-25.924;28.194;2023-03-03T05:10:41;85185.94;;;21.21;42.41
40948;BME280;49382;-25.924;28.194;2023-03-03T05:13:06;85191.66;;;17.68;49.13
40948;BME280;49382;-25.924;28.194;2023-03-03T05:15:31;85196.92;;;20.51;44.00
40948;BME280;49382;-25.924;28.194;2023-03-03T05:17:57;85199.62;;;19.39;47.39
40948;BME280;49382;-25.924;28.194;2023-03-03T05:20:22;85198.46;;;18.33;49.80
40948;BME280;49382;-25.924;28.194;2023-03-03T05:22:48;85198.77;;;18.51;49.61
40948;BME280;49382;-25.924;28.194;2023-03-03T05:25:14;85205.62;;;19.25;48.32
40948;BME280;49382;-25.924;28.194;2023-03-03T05:27:39;85201.40;;;18.60;48.80
40948;BME280;49382;-25.924;28.194;2023-03-03T05:30:06;85206.85;;;20.17;46.25
40948;BME280;49382;-25.924;28.194;2023-03-03T05:34:56;85207.22;;;18.04;50.70
40948;BME280;49382;-25.924;28.194;2023-03-03T05:37:22;85207.27;;;19.02;49.08
40948;BME280;49382;-25.924;28.194;2023-03-03T05:39:48;85207.49;;;18.58;50.39
40948;BME280;49382;-25.924;28.194;2023-03-03T05:42:14;85205.81;;;18.79;48.93
40948;BME280;49382;-25.924;28.194;2023-03-03T05:44:39;85207.18;;;21.47;43.82
40948;BME280;49382;-25.924;28.194;2023-03-03T05:47:05;85206.40;;;18.91;48.86
40948;BME280;49382;-25.924;28.194;2023-03-03T05:49:31;85205.65;;;19.83;47.36
40948;BME280;49382;-25.924;28.194;2023-03-03T05:51:57;85209.01;;;18.83;50.09
40948;BME280;49382;-25.924;28.194;2023-03-03T05:54:22;85213.59;;;19.38;48.92
40948;BME280;49382;-25.924;28.194;2023-03-03T05:56:48;85213.00;;;19.29;49.63
40948;BME280;49382;-25.924;28.194;2023-03-03T05:59:14;85212.49;;;18.93;49.57
40948;BME280;49382;-25.924;28.194;2023-03-03T06:01:39;85212.37;;;18.43;50.21
40948;BME280;49382;-25.924;28.194;2023-03-03T06:04:05;85218.50;;;20.16;48.19
40948;BME280;49382;-25.924;28.194;2023-03-03T06:06:31;85218.87;;;19.04;51.44
40948;BME280;49382;-25.924;28.194;2023-03-03T06:08:57;85222.49;;;19.83;48.48
40948;BME280;49382;-25.924;28.194;2023-03-03T06:11:23;85226.25;;;19.22;52.14
40948;BME280;49382;-25.924;28.194;2023-03-03T06:13:49;85227.68;;;19.98;50.05
40948;BME280;49382;-25.924;28.194;2023-03-03T06:16:14;85223.92;;;20.12;47.95
40948;BME280;49382;-25.924;28.194;2023-03-03T06:18:40;85228.59;;;20.46;48.42
40948;BME280;49382;-25.924;28.194;2023-03-03T06:21:06;85225.96;;;19.56;49.45
40948;BME280;49382;-25.924;28.194;2023-03-03T06:23:32;85226.41;;;19.54;49.94
40948;BME280;49382;-25.924;28.194;2023-03-03T06:25:57;85224.49;;;19.90;49.83
40948;BME280;49382;-25.924;28.194;2023-03-03T06:28:23;85230.06;;;20.57;49.49
40948;BME280;49382;-25.924;28.194;2023-03-03T06:30:52;85230.03;;;20.43;50.66
40948;BME280;49382;-25.924;28.194;2023-03-03T06:33:15;85224.33;;;20.36;49.34
40948;BME280;49382;-25.924;28.194;2023-03-03T06:35:41;85219.10;;;20.41;48.47
40948;BME280;49382;-25.924;28.194;2023-03-03T06:38:06;85218.03;;;23.00;44.30
40948;BME280;49382;-25.924;28.194;2023-03-03T06:40:32;85217.63;;;21.32;46.02
40948;BME280;49382;-25.924;28.194;2023-03-03T06:42:57;85216.00;;;21.30;46.73
40948;BME280;49382;-25.924;28.194;2023-03-03T06:45:23;85210.19;;;20.92;48.21
40948;BME280;49382;-25.924;28.194;2023-03-03T06:47:49;85210.98;;;20.95;48.02
40948;BME280;49382;-25.924;28.194;2023-03-03T06:50:19;85208.49;;;19.85;49.21
40948;BME280;49382;-25.924;28.194;2023-03-03T06:52:41;85207.41;;;20.94;48.17
40948;BME280;49382;-25.924;28.194;2023-03-03T06:55:12;85204.59;;;20.02;48.97
40948;BME280;49382;-25.924;28.194;2023-03-03T06:57:33;85206.77;;;19.95;48.82
40948;BME280;49382;-25.924;28.194;2023-03-03T07:00:02;85209.10;;;20.06;50.33
40948;BME280;49382;-25.924;28.194;2023-03-03T07:02:24;85210.39;;;20.70;47.56
40948;BME280;49382;-25.924;28.194;2023-03-03T07:04:50;85208.68;;;21.09;49.30
40948;BME280;49382;-25.924;28.194;2023-03-03T07:07:18;85203.24;;;23.11;43.86
40948;BME280;49382;-25.924;28.194;2023-03-03T07:09:41;85206.63;;;21.45;47.02
40948;BME280;49382;-25.924;28.194;2023-03-03T07:12:12;85205.04;;;21.59;46.91
40948;BME280;49382;-25.924;28.194;2023-03-03T07:14:33;85204.04;;;23.99;42.13
40948;BME280;49382;-25.924;28.194;2023-03-03T07:17:00;85206.85;;;21.46;46.00
40948;BME280;49382;-25.924;28.194;2023-03-03T07:19:30;85211.61;;;21.52;46.31
40948;BME280;49382;-25.924;28.194;2023-03-03T07:21:50;85215.22;;;21.02;48.12
40948;BME280;49382;-25.924;28.194;2023-03-03T07:24:24;85212.34;;;20.33;49.13
40948;BME280;49382;-25.924;28.194;2023-03-03T07:26:41;85214.02;;;21.74;46.89
40948;BME280;49382;-25.924;28.194;2023-03-03T07:29:18;85210.76;;;20.17;48.28
40948;BME280;49382;-25.924;28.194;2023-03-03T07:31:36;85210.12;;;20.79;46.05
40948;BME280;49382;-25.924;28.194;2023-03-03T07:34:00;85212.64;;;21.84;45.86
40948;BME280;49382;-25.924;28.194;2023-03-03T07:36:29;85216.97;;;20.69;48.29
40948;BME280;49382;-25.924;28.194;2023-03-03T07:38:53;85217.49;;;21.71;47.42
40948;BME280;49382;-25.924;28.194;2023-03-03T07:41:17;85217.82;;;22.21;45.91
40948;BME280;49382;-25.924;28.194;2023-03-03T07:43:46;85216.54;;;23.57;47.37
40948;BME280;49382;-25.924;28.194;2023-03-03T07:48:36;85221.98;;;21.56;46.87
40948;BME280;49382;-25.924;28.194;2023-03-03T07:51:03;85216.31;;;22.70;43.81
40948;BME280;49382;-25.924;28.194;2023-03-03T07:53:27;85219.71;;;22.91;44.65
40948;BME280;49382;-25.924;28.194;2023-03-03T07:55:50;85223.08;;;21.39;45.68
40948;BME280;49382;-25.924;28.194;2023-03-03T07:58:21;85225.64;;;22.16;47.02
40948;BME280;49382;-25.924;28.194;2023-03-03T08:03:11;85215.64;;;22.72;43.03
40948;BME280;49382;-25.924;28.194;2023-03-03T08:05:34;85216.61;;;20.89;47.23
40948;BME280;49382;-25.924;28.194;2023-03-03T08:08:09;85212.26;;;21.08;46.02
40948;BME280;49382;-25.924;28.194;2023-03-03T08:10:35;85213.07;;;21.41;46.48
40948;BME280;49382;-25.924;28.194;2023-03-03T08:12:49;85209.36;;;21.61;45.68
40948;BME280;49382;-25.924;28.194;2023-03-03T08:15:21;85210.92;;;21.96;45.35
40948;BME280;49382;-25.924;28.194;2023-03-03T08:17:42;85211.19;;;22.57;44.01
40948;BME280;49382;-25.924;28.194;2023-03-03T08:22:33;85210.48;;;23.35;42.30
40948;BME280;49382;-25.924;28.194;2023-03-03T08:24:58;85211.78;;;21.36;45.63
40948;BME280;49382;-25.924;28.194;2023-03-03T08:27:23;85209.76;;;23.02;43.36
40948;BME280;49382;-25.924;28.194;2023-03-03T08:29:49;85211.85;;;21.59;46.18
40948;BME280;49382;-25.924;28.194;2023-03-03T08:32:15;85207.79;;;23.40;42.66
40948;BME280;49382;-25.924;28.194;2023-03-03T08:34:41;85203.01;;;24.26;41.67
40948;BME280;49382;-25.924;28.194;2023-03-03T08:37:07;85206.29;;;27.18;37.40
40948;BME280;49382;-25.924;28.194;2023-03-03T08:39:33;85200.42;;;23.90;45.40
40948;BME280;49382;-25.924;28.194;2023-03-03T08:41:58;85195.42;;;22.53;43.51
40948;BME280;49382;-25.924;28.194;2023-03-03T08:44:24;85194.73;;;24.05;43.98
40948;BME280;49382;-25.924;28.194;2023-03-03T08:46:50;85195.06;;;25.97;41.23
40948;BME280;49382;-25.924;28.194;2023-03-03T08:49:15;85193.47;;;24.86;42.41
40948;BME280;49382;-25.924;28.194;2023-03-03T08:51:41;85186.54;;;22.79;41.95
40948;BME280;49382;-25.924;28.194;2023-03-03T08:54:07;85191.54;;;25.01;39.07
40948;BME280;49382;-25.924;28.194;2023-03-03T08:56:33;85187.96;;;24.16;43.21
40948;BME280;49382;-25.924;28.194;2023-03-03T08:58:58;85183.46;;;25.10;40.64
40948;BME280;49382;-25.924;28.194;2023-03-03T09:01:24;85185.45;;;24.32;39.76
40948;BME280;49382;-25.924;28.194;2023-03-03T09:03:50;85182.07;;;25.00;38.30
40948;BME280;49382;-25.924;28.194;2023-03-03T09:06:16;85175.72;;;24.33;38.49
40948;BME280;49382;-25.924;28.194;2023-03-03T09:08:41;85177.82;;;24.51;37.68
40948;BME280;49382;-25.924;28.194;2023-03-03T09:11:10;85177.23;;;25.77;36.31
40948;BME280;49382;-25.924;28.194;2023-03-03T09:13:33;85176.73;;;24.60;39.45
40948;BME280;49382;-25.924;28.194;2023-03-03T09:15:59;85173.74;;;24.46;39.15
40948;BME280;49382;-25.924;28.194;2023-03-03T09:18:30;85169.54;;;24.87;38.85
40948;BME280;49382;-25.924;28.194;2023-03-03T09:20:52;85166.13;;;25.27;37.03
40948;BME280;49382;-25.924;28.194;2023-03-03T09:25:41;85159.74;;;27.12;37.18
40948;BME280;49382;-25.924;28.194;2023-03-03T09:28:18;85155.77;;;27.59;36.47
40948;BME280;49382;-25.924;28.194;2023-03-03T09:30:38;85147.92;;;26.85;36.57
40948;BME280;49382;-25.924;28.194;2023-03-03T09:32:58;85144.00;;;28.39;34.86
40948;BME280;49382;-25.924;28.194;2023-03-03T09:35:35;85147.26;;;26.74;36.59
40948;BME280;49382;-25.924;28.194;2023-03-03T09:37:51;85141.41;;;24.95;40.21
40948;BME280;49382;-25.924;28.194;2023-03-03T09:42:49;85135.54;;;23.44;39.67
40948;BME280;49382;-25.924;28.194;2023-03-03T09:45:16;85132.94;;;25.40;38.95
40948;BME280;49382;-25.924;28.194;2023-03-03T09:47:43;85131.62;;;27.56;35.40
40948;BME280;49382;-25.924;28.194;2023-03-03T09:50:05;85131.82;;;24.93;40.20
40948;BME280;49382;-25.924;28.194;2023-03-03T09:52:34;85129.81;;;24.18;38.92
40948;BME280;49382;-25.924;28.194;2023-03-03T09:54:57;85128.71;;;23.15;40.83
40948;BME280;49382;-25.924;28.194;2023-03-03T09:57:19;85129.61;;;26.15;38.25
40948;BME280;49382;-25.924;28.194;2023-03-03T09:59:54;85130.07;;;26.32;37.18
40948;BME280;49382;-25.924;28.194;2023-03-03T10:02:21;85123.12;;;24.04;39.28
40948;BME280;49382;-25.924;28.194;2023-03-03T10:04:41;85122.88;;;23.55;40.12
40948;BME280;49382;-25.924;28.194;2023-03-03T10:07:10;85119.47;;;24.32;38.45
40948;BME280;49382;-25.924;28.194;2023-03-03T10:09:33;85114.34;;;23.84;39.95
40948;BME280;49382;-25.924;28.194;2023-03-03T10:11:54;85115.22;;;24.65;38.15
40948;BME280;49382;-25.924;28.194;2023-03-03T10:14:27;85116.98;;;25.69;37.00
40948;BME280;49382;-25.924;28.194;2023-03-03T10:16:50;85114.15;;;24.32;39.63
40948;BME280;49382;-25.924;28.194;2023-03-03T10:19:14;85110.31;;;24.16;39.51
40948;BME280;49382;-25.924;28.194;2023-03-03T10:21:38;85113.95;;;26.77;36.15
40948;BME280;49382;-25.924;28.194;2023-03-03T10:24:08;85112.68;;;27.03;35.90
40948;BME280;49382;-25.924;28.194;2023-03-03T10:26:41;85111.65;;;26.94;35.56
40948;BME280;49382;-25.924;28.194;2023-03-03T10:29:06;85108.61;;;26.82;35.90
40948;BME280;49382;-25.924;28.194;2023-03-03T10:31:24;85101.35;;;24.29;39.19
40948;BME280;49382;-25.924;28.194;2023-03-03T10:33:47;85101.19;;;24.48;39.06
40948;BME280;49382;-25.924;28.194;2023-03-03T10:38:43;85107.42;;;25.91;36.90
40948;BME280;49382;-25.924;28.194;2023-03-03T10:41:09;85101.12;;;24.26;39.50
40948;BME280;49382;-25.924;28.194;2023-03-03T10:43:32;85099.87;;;26.46;36.52
40948;BME280;49382;-25.924;28.194;2023-03-03T10:48:29;85089.35;;;25.74;37.22
40948;BME280;49382;-25.924;28.194;2023-03-03T10:50:50;85084.24;;;27.15;35.38
40948;BME280;49382;-25.924;28.194;2023-03-03T10:53:20;85073.90;;;22.76;42.07
40948;BME280;49382;-25.924;28.194;2023-03-03T10:55:38;85069.47;;;23.74;41.22
40948;BME280;49382;-25.924;28.194;2023-03-03T11:00:28;85064.86;;;25.59;38.57
40948;BME280;49382;-25.924;28.194;2023-03-03T11:05:25;85063.18;;;25.76;38.64
40948;BME280;49382;-25.924;28.194;2023-03-03T11:07:45;85058.22;;;23.82;40.95
40948;BME280;49382;-25.924;28.194;2023-03-03T11:10:17;85059.11;;;26.32;37.36
40948;BME280;49382;-25.924;28.194;2023-03-03T11:12:42;85050.26;;;24.70;38.88
40948;BME280;49382;-25.924;28.194;2023-03-03T11:15:12;85043.62;;;24.19;38.57
40948;BME280;49382;-25.924;28.194;2023-03-03T11:17:42;85044.68;;;25.17;38.17
40948;BME280;49382;-25.924;28.194;2023-03-03T11:20:00;85043.07;;;25.16;38.56
40948;BME280;49382;-25.924;28.194;2023-03-03T11:22:27;85035.54;;;26.88;35.45
40948;BME280;49382;-25.924;28.194;2023-03-03T11:24:51;85036.62;;;24.04;39.65
40948;BME280;49382;-25.924;28.194;2023-03-03T11:27:17;85037.40;;;23.34;40.52
40948;BME280;49382;-25.924;28.194;2023-03-03T11:29:42;85038.38;;;25.98;36.98
40948;BME280;49382;-25.924;28.194;2023-03-03T11:32:07;85030.57;;;27.76;34.09
40948;BME280;49382;-25.924;28.194;2023-03-03T11:36:54;85027.24;;;25.91;37.43
40948;BME280;49382;-25.924;28.194;2023-03-03T11:39:19;85027.95;;;24.63;39.68
40948;BME280;49382;-25.924;28.194;2023-03-03T11:41:45;85027.69;;;25.06;39.26
40948;BME280;49382;-25.924;28.194;2023-03-03T11:44:15;85024.04;;;24.43;39.89
40948;BME280;49382;-25.924;28.194;2023-03-03T11:46:37;85018.83;;;23.46;41.61
40948;BME280;49382;-25.924;28.194;2023-03-03T11:49:02;85022.92;;;23.44;42.04
40948;BME280;49382;-25.924;28.194;2023-03-03T11:51:33;85015.64;;;22.99;42.84
40948;BME280;49382;-25.924;28.194;2023-03-03T11:53:58;85014.48;;;23.09;43.42
40948;BME280;49382;-25.924;28.194;2023-03-03T11:56:22;85011.65;;;23.96;39.59
40948;BME280;49382;-25.924;28.194;2023-03-03T11:58:45;85008.07;;;22.98;41.26
40948;BME280;49382;-25.924;28.194;2023-03-03T12:01:11;85003.84;;;23.01;41.21
40948;BME280;49382;-25.924;28.194;2023-03-03T12:03:34;85002.06;;;23.79;39.61
40948;BME280;49382;-25.924;28.194;2023-03-03T12:06:10;84997.47;;;23.30;40.39
40948;BME280;49382;-25.924;28.194;2023-03-03T12:08:32;84999.14;;;24.67;40.65
40948;BME280;49382;-25.924;28.194;2023-03-03T12:10:55;84995.22;;;24.27;38.92
40948;BME280;49382;-25.924;28.194;2023-03-03T12:13:21;84993.08;;;26.40;36.88
40948;BME280;49382;-25.924;28.194;2023-03-03T12:15:46;84982.90;;;23.58;40.05
40948;BME280;49382;-25.924;28.194;2023-03-03T12:20:38;84969.74;;;25.43;37.89
40948;BME280;49382;-25.924;28.194;2023-03-03T12:23:10;84966.95;;;27.74;35.93
40948;BME280;49382;-25.924;28.194;2023-03-03T12:25:31;84967.79;;;24.68;38.18
40948;BME280;49382;-25.924;28.194;2023-03-03T12:27:55;84963.10;;;24.64;37.08
40948;BME280;49382;-25.924;28.194;2023-03-03T12:30:26;84958.17;;;23.48;38.61
40948;BME280;49382;-25.924;28.194;2023-03-03T12:32:49;84950.50;;;23.05;38.55
40948;BME280;49382;-25.924;28.194;2023-03-03T12:35:14;84947.09;;;22.46;39.07
40948;BME280;49382;-25.924;28.194;2023-03-03T12:37:45;84944.06;;;26.41;34.51
40948;BME280;49382;-25.924;28.194;2023-03-03T12:40:05;84943.41;;;24.52;37.81
40948;BME280;49382;-25.924;28.194;2023-03-03T12:42:33;84939.86;;;23.76;39.41
40948;BME280;49382;-25.924;28.194;2023-03-03T12:44:58;84929.66;;;22.96;39.61
40948;BME280;49382;-25.924;28.194;2023-03-03T12:47:20;84927.75;;;22.88;41.42
40948;BME280;49382;-25.924;28.194;2023-03-03T12:49:48;84929.18;;;25.67;36.96
40948;BME280;49382;-25.924;28.194;2023-03-03T12:52:18;84928.16;;;25.75;38.11
40948;BME280;49382;-25.924;28.194;2023-03-03T12:54:46;84929.39;;;23.81;39.08
40948;BME280;49382;-25.924;28.194;2023-03-03T12:57:03;84933.34;;;24.83;39.21
40948;BME280;49382;-25.924;28.194;2023-03-03T12:59:32;84928.35;;;25.45;37.18
40948;BME280;49382;-25.924;28.194;2023-03-03T13:02:02;84926.02;;;25.77;36.68
40948;BME280;49382;-25.924;28.194;2023-03-03T13:06:44;84924.60;;;25.26;36.04
40948;BME280;49382;-25.924;28.194;2023-03-03T13:09:17;84920.38;;;25.83;35.11